SBOSBO HAJ / EDDV
Speedbird OnlineSpeedbird Online HAJ / EDDV

Hannover Airport
17:29 8.9°C

Location Hannover, Germany
Latitude: 52.461101532
Longitude: 9.685079574580001
Local Time 17:29 on 17 Apr 2024
UTC +2 hours (Europe/Berlin)
Currency £1 equals EUR 1.17
METAR EDDV 171450Z AUTO 08004KT 030V150 CAVOK 09/03 Q1009 BECMG 26007KT
TAF TAF EDDV 171100Z 1712/1812 32007KT 9999 FEW040 TEMPO 1712/1718 SHRA BKN020CB PROB30 TEMPO 1712/1718 32015G25KT 3500 TSGSRA BKN014CB BECMG 1718/1720 VRB02KT TEMPO 1800/1806 2500 BCFG PROB30 TEMPO 1801/1807 0600 FG BECMG 1807/1809 29006KT
Weather As Of 17 Apr 2024 17:29
Description Clear sky
Wind 7 km/h from East (80°)
Cloud Cover 0%
Precipitation Rain: none, Snow: none
Sunrise 06:18
Sunset 20:22
NOTAM 41 active NOTAM
Rotations During the last 90 days there were
179 flights from LHR
1 flights from HAJ
185 flights to LHR
1 flights to HAJ
Lounges Karl-Jatho Lounge (Temporarily Closed), Between Terminal A and B
Web Wikipedia
Codes IATA: HAJ
ICAO: EDDV
Altitude 56 Meter / 183 Feet
Distance 663 KM / 412 Miles
from London.
Runways
RunwayLength (m)Surface
09C780Asphalt
09L3800Concrete
09R2340Concrete
27C780Asphalt
27L2340Concrete
27R3800Concrete
Radio
TypeDescriptionFrequency
AFISLANGEN INFORMATION119.825
APPDIRECTOR119.6
ATISATIS132.125
GNDGND121.95
RDRBREMEN RADAR131.325
TWRTWR120.175
Live ATC



Support Speedbird Online

© 2017-2024 Speedbird Online